createdAt,value
2023-05-19T00:01:23.066Z,4.72
2023-05-19T00:03:53.619Z,4.82
2023-05-19T00:06:26.767Z,3.78
2023-05-19T00:09:06.106Z,3.92
2023-05-19T00:11:36.122Z,3.70
2023-05-19T00:14:05.966Z,3.15
2023-05-19T00:16:33.825Z,3.00
2023-05-19T00:19:02.786Z,3.12
2023-05-19T00:21:31.316Z,2.58
2023-05-19T00:23:58.900Z,2.90
2023-05-19T00:26:27.416Z,3.10
2023-05-19T00:28:55.661Z,2.83
2023-05-19T00:31:23.156Z,2.70
2023-05-19T00:33:52.055Z,2.60
2023-05-19T00:36:19.963Z,2.67
2023-05-19T00:38:47.374Z,2.87
2023-05-19T00:41:15.105Z,2.65
2023-05-19T00:43:43.497Z,2.80
2023-05-19T00:46:11.062Z,2.87
2023-05-19T00:48:38.642Z,3.12
2023-05-19T00:51:06.716Z,3.05
2023-05-19T00:53:35.094Z,2.95
2023-05-19T00:56:03.194Z,2.90
2023-05-19T00:58:32.567Z,2.55
2023-05-19T01:01:04.447Z,2.75
2023-05-19T01:03:35.589Z,3.20
2023-05-19T01:06:07.414Z,3.55
2023-05-19T01:08:37.150Z,2.58
2023-05-19T01:11:05.472Z,3.05
2023-05-19T01:13:33.506Z,2.92
2023-05-19T01:16:12.420Z,2.75
2023-05-19T01:18:46.371Z,2.90
2023-05-19T01:21:36.430Z,2.92
2023-05-19T01:24:27.383Z,2.78
2023-05-19T01:27:20.072Z,2.67
2023-05-19T01:30:19.232Z,2.72
2023-05-19T01:32:47.551Z,2.97
2023-05-19T01:35:15.774Z,3.08
2023-05-19T01:37:45.369Z,3.03
2023-05-19T01:40:13.360Z,2.83
2023-05-19T01:42:41.122Z,3.47
2023-05-19T01:45:11.832Z,3.12
2023-05-19T01:47:43.134Z,3.22
2023-05-19T01:50:11.284Z,3.22
2023-05-19T01:52:39.009Z,3.10
2023-05-19T01:55:07.055Z,3.03
2023-05-19T01:57:52.674Z,2.83
2023-05-19T02:00:44.789Z,2.92
2023-05-19T02:03:12.818Z,2.97
2023-05-19T02:05:40.132Z,2.97
2023-05-19T02:08:26.313Z,3.08
2023-05-19T02:11:07.096Z,2.90
2023-05-19T02:13:37.265Z,2.78
2023-05-19T02:16:06.177Z,3.08
2023-05-19T02:18:35.392Z,3.20
2023-05-19T02:21:03.230Z,3.30
2023-05-19T02:23:31.307Z,3.10
2023-05-19T02:25:58.775Z,3.12
2023-05-19T02:28:28.378Z,2.92
2023-05-19T02:30:55.939Z,3.12
2023-05-19T02:33:26.031Z,3.30
2023-05-19T02:35:53.991Z,3.35
2023-05-19T02:38:21.457Z,3.30
2023-05-19T02:40:48.864Z,3.17
2023-05-19T02:43:16.581Z,3.20
2023-05-19T02:45:43.995Z,3.17
2023-05-19T02:48:11.759Z,3.80
2023-05-19T02:50:39.652Z,3.12
2023-05-19T02:53:07.117Z,3.50
2023-05-19T02:55:34.678Z,3.37
2023-05-19T02:58:02.562Z,3.28
2023-05-19T03:00:30.153Z,3.50
2023-05-19T03:03:02.747Z,3.35
2023-05-19T03:05:31.153Z,4.00
2023-05-19T03:07:58.632Z,2.65
2023-05-19T03:10:26.250Z,3.35
2023-05-19T03:12:53.999Z,3.60
2023-05-19T03:15:23.251Z,4.40
2023-05-19T03:17:50.980Z,3.72
2023-05-19T03:20:18.899Z,3.50
2023-05-19T03:22:46.378Z,3.45
2023-05-19T03:25:13.886Z,3.50
2023-05-19T03:27:42.085Z,3.15
2023-05-19T03:30:10.398Z,3.40
2023-05-19T03:32:40.139Z,3.40
2023-05-19T03:35:08.286Z,3.60
2023-05-19T03:37:35.853Z,3.50
2023-05-19T03:40:05.422Z,3.65
2023-05-19T03:42:34.405Z,3.40
2023-05-19T03:45:02.660Z,3.45
2023-05-19T03:47:31.698Z,3.67
2023-05-19T03:50:00.206Z,3.60
2023-05-19T03:52:29.546Z,3.37
2023-05-19T03:54:57.781Z,3.67
2023-05-19T03:57:25.683Z,3.90
2023-05-19T03:59:54.146Z,4.00
2023-05-19T04:02:21.663Z,3.28
2023-05-19T04:04:50.671Z,3.97
2023-05-19T04:07:18.389Z,3.65
2023-05-19T04:09:46.253Z,3.85
2023-05-19T04:12:13.974Z,4.50
2023-05-19T04:14:41.497Z,4.75
2023-05-19T04:17:10.916Z,4.55
2023-05-19T04:19:38.642Z,4.50
2023-05-19T04:22:06.154Z,4.80
2023-05-19T04:24:33.859Z,4.47
2023-05-19T04:27:02.563Z,4.70
2023-05-19T04:29:30.037Z,4.18
2023-05-19T04:31:57.440Z,4.70
2023-05-19T04:34:25.487Z,4.45
2023-05-19T04:36:53.482Z,4.75
2023-05-19T04:39:21.726Z,5.47
2023-05-19T04:41:49.651Z,4.70
2023-05-19T04:44:18.495Z,4.47
2023-05-19T04:46:46.525Z,4.03
2023-05-19T04:49:14.519Z,4.50
2023-05-19T04:51:42.396Z,4.60
2023-05-19T04:54:10.331Z,4.57
2023-05-19T04:56:38.079Z,4.93
2023-05-19T04:59:06.887Z,5.07
2023-05-19T05:01:34.720Z,4.37
2023-05-19T05:04:02.910Z,4.82
2023-05-19T05:06:31.667Z,5.28
2023-05-19T05:09:00.108Z,4.30
2023-05-19T05:11:28.561Z,4.55
2023-05-19T05:13:58.210Z,4.82
2023-05-19T05:16:27.111Z,5.07
2023-05-19T05:18:55.885Z,4.20
2023-05-19T05:21:23.965Z,4.20
2023-05-19T05:23:52.244Z,4.35
2023-05-19T05:26:24.209Z,4.40
2023-05-19T05:28:52.547Z,4.30
2023-05-19T05:31:21.117Z,4.90
2023-05-19T05:33:48.808Z,4.30
2023-05-19T05:36:16.665Z,4.00
2023-05-19T05:38:45.136Z,4.18
2023-05-19T05:41:12.908Z,4.00
2023-05-19T05:43:40.797Z,3.97
2023-05-19T05:46:09.127Z,3.72
2023-05-19T05:48:37.226Z,4.72
2023-05-19T05:51:05.922Z,4.10
2023-05-19T05:53:37.494Z,4.75
2023-05-19T05:56:05.333Z,4.60
2023-05-19T05:58:35.788Z,4.03
2023-05-19T06:01:05.477Z,4.30
2023-05-19T06:03:33.605Z,4.30
2023-05-19T06:06:02.247Z,3.80
2023-05-19T06:08:29.800Z,4.03
2023-05-19T06:10:58.744Z,3.47
2023-05-19T06:13:27.261Z,4.03
2023-05-19T06:15:54.789Z,4.18
2023-05-19T06:18:22.685Z,3.87
2023-05-19T06:20:50.132Z,4.25
2023-05-19T06:23:17.757Z,4.30
2023-05-19T06:25:45.512Z,3.67
2023-05-19T06:28:13.151Z,3.92
2023-05-19T06:30:40.554Z,4.10
2023-05-19T06:33:08.907Z,3.95
2023-05-19T06:35:36.506Z,4.12
2023-05-19T06:38:03.917Z,4.12
2023-05-19T06:40:31.755Z,3.62
2023-05-19T06:42:59.346Z,3.87
2023-05-19T06:45:28.337Z,3.90
2023-05-19T06:47:58.357Z,3.85
2023-05-19T06:50:26.308Z,3.80
2023-05-19T06:52:54.928Z,4.10
2023-05-19T06:55:22.716Z,3.45
2023-05-19T06:57:50.333Z,3.33
2023-05-19T07:00:22.097Z,3.53
2023-05-19T07:02:51.845Z,3.35
2023-05-19T07:05:19.596Z,3.05
2023-05-19T07:07:47.541Z,3.40
2023-05-19T07:10:15.704Z,3.28
2023-05-19T07:12:43.756Z,3.20
2023-05-19T07:15:11.436Z,3.00
2023-05-19T07:17:39.460Z,3.35
2023-05-19T07:20:10.030Z,3.33
2023-05-19T07:22:39.752Z,3.35
2023-05-19T07:25:08.278Z,3.20
2023-05-19T07:27:36.706Z,3.72
2023-05-19T07:30:04.375Z,3.15
2023-05-19T07:32:32.764Z,3.00
2023-05-19T07:35:00.217Z,2.65
2023-05-19T07:37:27.672Z,3.10
2023-05-19T07:39:55.533Z,3.15
2023-05-19T07:42:22.950Z,3.50
2023-05-19T07:44:50.690Z,3.33
2023-05-19T07:47:18.400Z,3.12
2023-05-19T07:49:46.033Z,3.40
2023-05-19T07:52:13.494Z,3.30
2023-05-19T07:54:41.283Z,3.28
2023-05-19T07:57:08.696Z,2.90
2023-05-19T07:59:36.150Z,2.40
2023-05-19T08:02:03.963Z,3.10
2023-05-19T08:04:31.790Z,3.08
2023-05-19T08:06:59.750Z,2.87
2023-05-19T08:09:27.271Z,3.08
2023-05-19T08:11:55.098Z,2.97
2023-05-19T08:14:22.882Z,2.60
2023-05-19T08:16:50.418Z,2.87
2023-05-19T08:19:18.274Z,3.50
2023-05-19T08:21:45.791Z,3.80
2023-05-19T08:24:13.513Z,3.42
2023-05-19T08:26:41.648Z,3.22
2023-05-19T08:29:09.128Z,3.28
2023-05-19T08:31:36.584Z,3.85
2023-05-19T08:34:04.300Z,4.05
2023-05-19T08:36:31.950Z,3.15
2023-05-19T08:38:59.383Z,3.15
2023-05-19T08:41:27.055Z,2.80
2023-05-19T08:43:55.032Z,2.70
2023-05-19T08:46:25.161Z,2.78
2023-05-19T08:48:59.298Z,2.95
2023-05-19T08:51:45.622Z,2.78
2023-05-19T08:54:18.145Z,3.58
2023-05-19T08:56:45.760Z,3.35
2023-05-19T08:59:15.103Z,3.50
2023-05-19T09:01:45.690Z,3.12
2023-05-19T09:04:14.212Z,3.70
2023-05-19T09:06:42.450Z,3.35
2023-05-19T09:09:10.290Z,5.37
2023-05-19T09:11:38.182Z,3.87
2023-05-19T09:14:05.797Z,3.30
2023-05-19T09:16:33.953Z,3.28
2023-05-19T09:19:02.070Z,2.70
2023-05-19T09:21:31.116Z,3.10
2023-05-19T09:24:09.371Z,2.58
2023-05-19T09:26:41.578Z,2.67
2023-05-19T09:29:18.290Z,2.60
2023-05-19T09:31:53.905Z,2.35
2023-05-19T09:34:26.819Z,3.95
2023-05-19T09:36:54.632Z,2.58
2023-05-19T09:39:25.826Z,2.65
2023-05-19T09:41:54.268Z,2.93
2023-05-19T09:44:30.337Z,3.40
2023-05-19T09:46:58.791Z,2.92
2023-05-19T09:49:31.426Z,2.45
2023-05-19T09:52:03.491Z,2.62
2023-05-19T09:54:32.512Z,3.15
2023-05-19T09:57:01.467Z,2.95
2023-05-19T09:59:32.870Z,2.83
2023-05-19T10:02:02.414Z,3.00
2023-05-19T10:04:31.030Z,2.85
2023-05-19T10:07:05.662Z,2.80
2023-05-19T10:09:34.276Z,2.60
2023-05-19T10:12:02.615Z,2.72
2023-05-19T10:14:30.319Z,2.55
2023-05-19T10:16:59.061Z,3.03
2023-05-19T10:19:28.862Z,2.22
2023-05-19T10:21:56.561Z,2.58
2023-05-19T10:24:24.435Z,2.90
2023-05-19T10:26:56.369Z,2.65
2023-05-19T10:29:29.885Z,2.60
2023-05-19T10:31:59.385Z,2.50
2023-05-19T10:34:50.517Z,2.70
2023-05-19T10:37:46.669Z,2.80
2023-05-19T10:40:21.886Z,2.60
2023-05-19T10:43:14.133Z,2.60
2023-05-19T10:48:13.987Z,2.87
2023-05-19T10:50:43.972Z,2.62
2023-05-19T10:53:18.193Z,3.12
2023-05-19T10:55:47.920Z,3.20
2023-05-19T10:58:15.571Z,2.92
2023-05-19T11:00:43.027Z,3.22
2023-05-19T11:03:15.479Z,3.60
2023-05-19T11:05:45.650Z,4.55
2023-05-19T11:08:13.635Z,3.60
2023-05-19T11:10:45.236Z,4.45
2023-05-19T11:13:22.682Z,6.65
2023-05-19T11:15:50.779Z,3.67
2023-05-19T11:18:19.527Z,3.65
2023-05-19T11:20:57.988Z,4.43
2023-05-19T11:23:25.985Z,3.97
2023-05-19T11:25:56.374Z,4.45
2023-05-19T11:28:28.141Z,4.25
2023-05-19T11:30:57.911Z,4.43
2023-05-19T11:33:29.167Z,4.07
2023-05-19T11:35:59.953Z,3.50
2023-05-19T11:38:29.917Z,3.72
2023-05-19T11:40:57.804Z,4.62
2023-05-19T11:43:27.722Z,4.00
2023-05-19T11:45:55.803Z,3.45
2023-05-19T11:48:24.936Z,3.65
2023-05-19T11:50:52.592Z,3.65
2023-05-19T11:53:20.839Z,3.58
2023-05-19T11:55:49.402Z,3.83
2023-05-19T11:58:17.652Z,4.15
2023-05-19T12:00:48.560Z,4.25
2023-05-19T12:03:28.623Z,4.03
2023-05-19T12:05:56.530Z,3.90
2023-05-19T12:08:25.092Z,4.03
2023-05-19T12:10:52.580Z,4.10
2023-05-19T12:13:20.138Z,4.20
2023-05-19T12:15:47.970Z,3.65
2023-05-19T12:18:15.434Z,3.20
2023-05-19T12:20:43.188Z,3.67
2023-05-19T12:23:11.215Z,3.85
2023-05-19T12:25:38.741Z,3.97
2023-05-19T12:28:07.245Z,3.50
2023-05-19T12:30:35.442Z,3.20
2023-05-19T12:33:03.516Z,3.58
2023-05-19T12:35:35.977Z,3.33
2023-05-19T12:38:04.987Z,3.92
2023-05-19T12:40:37.187Z,3.42
2023-05-19T12:43:06.646Z,3.50
2023-05-19T12:45:38.725Z,3.53
2023-05-19T12:48:11.731Z,3.00
2023-05-19T12:50:39.330Z,2.95
2023-05-19T12:53:14.482Z,3.40
2023-05-19T12:55:43.260Z,2.90
2023-05-19T12:58:11.959Z,3.10
2023-05-19T13:00:45.396Z,3.10
2023-05-19T13:03:18.179Z,2.70
2023-05-19T13:05:50.373Z,2.90
2023-05-19T13:08:20.475Z,3.05
2023-05-19T13:10:49.259Z,3.12
2023-05-19T13:13:17.320Z,3.00
2023-05-19T13:15:48.592Z,3.70
2023-05-19T13:18:17.222Z,3.12
2023-05-19T13:20:46.938Z,2.83
2023-05-19T13:23:14.712Z,2.50
2023-05-19T13:25:42.800Z,2.62
2023-05-19T13:28:10.810Z,3.12
2023-05-19T13:30:39.853Z,3.08
2023-05-19T13:33:07.559Z,2.92
2023-05-19T13:35:38.848Z,3.00
2023-05-19T13:38:08.083Z,2.70
2023-05-19T13:40:36.563Z,3.95
2023-05-19T13:43:04.433Z,2.90
2023-05-19T13:45:32.073Z,2.60
2023-05-19T13:47:59.854Z,2.92
2023-05-19T13:50:27.407Z,3.05
2023-05-19T13:52:54.869Z,2.90
2023-05-19T13:55:23.265Z,3.28
2023-05-19T13:57:50.948Z,3.45
2023-05-19T14:00:19.113Z,2.87
2023-05-19T14:02:47.042Z,3.05
2023-05-19T14:05:14.612Z,4.10
2023-05-19T14:07:42.489Z,2.80
2023-05-19T14:10:10.488Z,3.00
2023-05-19T14:12:55.106Z,2.85
2023-05-19T14:15:26.725Z,2.60
2023-05-19T14:17:54.298Z,2.72
2023-05-19T14:20:21.918Z,3.17
2023-05-19T14:22:49.846Z,2.30
2023-05-19T14:25:17.225Z,2.40
2023-05-19T14:27:44.678Z,2.50
2023-05-19T14:30:12.709Z,2.20
2023-05-19T14:32:40.296Z,2.72
2023-05-19T14:35:07.955Z,2.45
2023-05-19T14:37:35.697Z,2.45
2023-05-19T14:40:04.588Z,2.80
2023-05-19T14:42:32.143Z,2.33
2023-05-19T14:44:59.944Z,2.35
2023-05-19T14:47:27.595Z,2.58
2023-05-19T14:49:55.116Z,2.65
2023-05-19T14:52:22.963Z,2.50
2023-05-19T14:54:50.480Z,2.40
2023-05-19T14:57:17.926Z,2.47
2023-05-19T14:59:45.662Z,2.95
2023-05-19T15:02:13.097Z,2.62
2023-05-19T15:04:40.585Z,2.67
2023-05-19T15:07:10.148Z,2.62
2023-05-19T15:09:38.484Z,2.28
2023-05-19T15:12:06.050Z,2.25
2023-05-19T15:14:33.817Z,2.62
2023-05-19T15:17:01.379Z,2.53
2023-05-19T15:19:29.057Z,2.62
2023-05-19T15:21:56.963Z,2.55
2023-05-19T15:24:24.413Z,2.40
2023-05-19T15:26:52.415Z,2.70
2023-05-19T15:29:20.339Z,2.10
2023-05-19T15:31:54.340Z,2.40
2023-05-19T15:34:22.065Z,3.05
2023-05-19T15:36:49.534Z,2.90
2023-05-19T15:39:16.975Z,2.50
2023-05-19T15:41:44.915Z,2.42
2023-05-19T15:44:12.667Z,2.85
2023-05-19T15:46:40.216Z,2.53
2023-05-19T15:49:08.159Z,2.55
2023-05-19T15:51:35.738Z,2.30
2023-05-19T15:54:03.202Z,2.40
2023-05-19T15:56:31.109Z,2.60
2023-05-19T15:58:58.561Z,2.37
2023-05-19T16:01:26.433Z,2.67
2023-05-19T16:03:54.479Z,2.70
2023-05-19T16:06:22.023Z,2.25
2023-05-19T16:08:49.479Z,2.70
2023-05-19T16:11:18.249Z,2.40
2023-05-19T16:13:45.716Z,2.72
2023-05-19T16:16:13.249Z,2.47
2023-05-19T16:18:41.114Z,2.40
2023-05-19T16:21:08.854Z,2.47
2023-05-19T16:23:36.663Z,2.50
2023-05-19T16:26:04.479Z,2.10
2023-05-19T16:28:32.504Z,2.22
2023-05-19T16:31:00.228Z,2.10
2023-05-19T16:33:28.293Z,2.42
2023-05-19T16:35:56.234Z,2.60
2023-05-19T16:38:23.759Z,2.87
2023-05-19T16:40:51.557Z,2.28
2023-05-19T16:43:18.970Z,2.08
2023-05-19T16:45:46.501Z,2.53
2023-05-19T16:48:14.324Z,2.10
2023-05-19T16:50:41.794Z,2.33
2023-05-19T16:53:09.235Z,2.50
2023-05-19T16:55:36.987Z,2.70
2023-05-19T16:58:04.432Z,3.10
2023-05-19T17:00:31.964Z,2.42
2023-05-19T17:03:00.887Z,2.95
2023-05-19T17:05:29.032Z,3.00
2023-05-19T17:07:56.814Z,2.67
2023-05-19T17:10:24.505Z,2.92
2023-05-19T17:12:51.895Z,2.65
2023-05-19T17:15:19.382Z,2.60
2023-05-19T17:17:47.212Z,3.20
2023-05-19T17:20:14.858Z,2.62
2023-05-19T17:22:42.293Z,3.20
2023-05-19T17:25:10.196Z,3.05
2023-05-19T17:27:37.782Z,3.05
2023-05-19T17:30:05.840Z,3.20
2023-05-19T17:32:38.587Z,2.83
2023-05-19T17:35:06.824Z,2.95
2023-05-19T17:37:34.560Z,2.92
2023-05-19T17:40:02.650Z,3.40
2023-05-19T17:42:31.772Z,3.75
2023-05-19T17:44:59.609Z,3.03
2023-05-19T17:47:27.106Z,4.07
2023-05-19T17:49:54.668Z,3.60
2023-05-19T17:52:22.668Z,3.40
2023-05-19T17:54:50.729Z,3.05
2023-05-19T17:57:18.690Z,2.80
2023-05-19T17:59:46.683Z,2.90
2023-05-19T18:02:15.683Z,3.10
2023-05-19T18:04:43.793Z,3.33
2023-05-19T18:07:11.952Z,3.80
2023-05-19T18:09:45.513Z,3.70
2023-05-19T18:12:13.371Z,4.00
2023-05-19T18:14:40.901Z,5.28
2023-05-19T18:17:08.558Z,5.50
2023-05-19T18:19:36.251Z,5.35
2023-05-19T18:22:03.808Z,6.05
2023-05-19T18:24:31.398Z,5.37
2023-05-19T18:26:59.261Z,5.82
2023-05-19T18:29:26.673Z,5.90
2023-05-19T18:31:54.136Z,5.43
2023-05-19T18:34:21.885Z,5.37
2023-05-19T18:36:49.326Z,5.90
2023-05-19T18:39:16.772Z,5.95
2023-05-19T18:41:44.573Z,5.60
2023-05-19T18:44:12.057Z,5.22
2023-05-19T18:46:39.504Z,5.25
2023-05-19T18:49:07.432Z,4.97
2023-05-19T18:51:36.042Z,5.65
2023-05-19T18:54:03.573Z,5.60
2023-05-19T18:56:33.189Z,5.45
2023-05-19T18:59:00.748Z,5.72
2023-05-19T19:01:28.336Z,5.57
2023-05-19T19:03:56.277Z,7.30
2023-05-19T19:06:23.844Z,7.85
2023-05-19T19:08:51.609Z,7.00
2023-05-19T19:11:19.523Z,8.77
2023-05-19T19:13:50.979Z,14.00
2023-05-19T19:16:18.771Z,16.08
2023-05-19T19:18:46.457Z,16.48
2023-05-19T19:21:14.111Z,16.65
2023-05-19T19:23:41.829Z,16.92
2023-05-19T19:26:09.559Z,17.48
2023-05-19T19:28:37.122Z,16.62
2023-05-19T19:31:04.810Z,15.85
2023-05-19T19:33:32.322Z,14.82
2023-05-19T19:35:59.786Z,13.27
2023-05-19T19:38:27.580Z,11.00
2023-05-19T19:40:56.030Z,10.85
2023-05-19T19:43:23.633Z,10.07
2023-05-19T19:46:01.434Z,9.50
2023-05-19T19:48:28.948Z,8.38
2023-05-19T19:50:57.187Z,9.00
2023-05-19T19:53:24.893Z,9.45
2023-05-19T19:55:59.185Z,9.73
2023-05-19T19:58:28.024Z,9.00
2023-05-19T20:00:59.490Z,9.32
2023-05-19T20:03:27.824Z,8.30
2023-05-19T20:05:56.638Z,9.75
2023-05-19T20:08:24.858Z,8.55
2023-05-19T20:10:52.923Z,9.05
2023-05-19T20:13:20.684Z,12.48
2023-05-19T20:15:48.237Z,15.65
2023-05-19T20:18:16.020Z,15.95
2023-05-19T20:20:43.462Z,15.77
2023-05-19T20:23:12.530Z,16.17
2023-05-19T20:25:54.470Z,16.02
2023-05-19T20:28:26.359Z,16.60
2023-05-19T20:30:54.062Z,16.23
2023-05-19T20:33:21.776Z,15.35
2023-05-19T20:35:49.243Z,13.73
2023-05-19T20:38:16.955Z,11.73
2023-05-19T20:40:44.384Z,12.73
2023-05-19T20:43:12.260Z,10.32
2023-05-19T20:45:43.070Z,10.35
2023-05-19T20:48:11.384Z,8.30
2023-05-19T20:50:39.294Z,8.30
2023-05-19T20:53:07.542Z,9.10
2023-05-19T20:55:37.860Z,7.62
2023-05-19T20:58:05.469Z,7.35
2023-05-19T21:00:33.452Z,7.47
2023-05-19T21:03:01.519Z,8.50
2023-05-19T21:05:29.170Z,8.73
2023-05-19T21:07:56.995Z,9.02
2023-05-19T21:10:24.465Z,8.38
2023-05-19T21:12:51.915Z,6.40
2023-05-19T21:15:19.810Z,6.22
2023-05-19T21:17:47.516Z,5.60
2023-05-19T21:20:15.021Z,5.40
2023-05-19T21:22:42.768Z,5.28
2023-05-19T21:25:10.889Z,7.50
2023-05-19T21:27:39.525Z,7.68
2023-05-19T21:30:07.922Z,7.93
2023-05-19T21:32:35.438Z,6.32
2023-05-19T21:35:03.502Z,6.65
2023-05-19T21:37:31.208Z,6.68
2023-05-19T21:39:58.737Z,6.45
2023-05-19T21:42:26.263Z,6.07
2023-05-19T21:44:54.083Z,5.18
2023-05-19T21:47:21.564Z,6.72
2023-05-19T21:49:49.018Z,6.28
2023-05-19T21:52:16.725Z,6.72
2023-05-19T21:54:44.149Z,7.37
2023-05-19T21:57:12.613Z,7.20
2023-05-19T21:59:40.540Z,8.30
2023-05-19T22:02:08.219Z,8.25
2023-05-19T22:04:36.151Z,7.90
2023-05-19T22:07:03.893Z,7.45
2023-05-19T22:09:31.432Z,7.40
2023-05-19T22:11:59.157Z,7.78
2023-05-19T22:14:26.602Z,6.53
2023-05-19T22:16:54.157Z,6.95
2023-05-19T22:19:21.940Z,6.97
2023-05-19T22:21:51.810Z,6.53
2023-05-19T22:24:23.578Z,6.32
2023-05-19T22:26:51.053Z,6.35
2023-05-19T22:29:19.636Z,6.47
2023-05-19T22:31:47.510Z,6.18
2023-05-19T22:34:15.415Z,6.30
2023-05-19T22:36:44.291Z,6.90
2023-05-19T22:39:14.902Z,6.65
2023-05-19T22:41:42.327Z,6.22
2023-05-19T22:44:11.364Z,6.85
2023-05-19T22:46:39.196Z,6.07
2023-05-19T22:49:06.695Z,6.15
2023-05-19T22:51:34.340Z,6.55
2023-05-19T22:54:02.158Z,6.50
2023-05-19T22:56:29.556Z,6.62
2023-05-19T22:58:57.003Z,6.85
2023-05-19T23:01:24.784Z,6.57
2023-05-19T23:03:52.260Z,7.22
2023-05-19T23:06:19.800Z,6.82
2023-05-19T23:08:47.590Z,6.53
2023-05-19T23:11:15.591Z,6.18
2023-05-19T23:13:42.988Z,6.15
2023-05-19T23:16:10.841Z,6.43
2023-05-19T23:18:38.443Z,7.12
2023-05-19T23:21:06.013Z,6.60
2023-05-19T23:23:35.900Z,6.87
2023-05-19T23:26:03.889Z,5.80
2023-05-19T23:28:31.367Z,6.70
2023-05-19T23:30:59.101Z,7.05
2023-05-19T23:33:26.554Z,6.78
2023-05-19T23:35:54.214Z,5.78
2023-05-19T23:38:21.962Z,6.75
2023-05-19T23:40:49.410Z,6.47
2023-05-19T23:43:16.951Z,6.18
2023-05-19T23:45:44.692Z,6.03
2023-05-19T23:48:12.173Z,6.12
2023-05-19T23:50:39.655Z,7.05
2023-05-19T23:53:07.986Z,6.20
2023-05-19T23:55:35.807Z,6.10
2023-05-19T23:58:03.415Z,5.70
